Time;durP1;ratioP1;P1;durP2;ratioP2;P2;SDS_P1;SDS_P2;PMS_P1;PMS_P2;Temp;Humidity;BMP_temperature;BMP_pressure;BME280_temperature;BME280_humidity;BME280_pressure;Samples;Min_cycle;Max_cycle;Signal;HPM_P1;HPM_P2
2022/05/03 00:01:53;;;;;;;12.48;5.88;;;7.70;99.90;;;;;;5058055;28;20037;-85
2022/05/03 00:04:31;;;;;;;12.27;6.55;;;7.70;99.90;;;;;;5042207;28;20044;-85
2022/05/03 00:07:06;;;;;;;12.98;6.95;;;7.70;99.90;;;;;;5070255;28;20036;-85
2022/05/03 00:09:39;;;;;;;11.63;6.55;;;7.70;99.90;;;;;;5053858;28;20497;-85
2022/05/03 00:12:11;;;;;;;11.45;6.65;;;7.70;99.90;;;;;;5050437;28;20048;-85
2022/05/03 00:14:42;;;;;;;13.00;7.47;;;7.70;99.90;;;;;;5050784;28;20044;-85
2022/05/03 00:17:09;;;;;;;12.60;7.03;;;7.70;99.90;;;;;;5043118;28;20526;-85
2022/05/03 00:19:35;;;;;;;12.73;6.80;;;7.60;99.90;;;;;;5050067;28;20040;-85
2022/05/03 00:22:02;;;;;;;11.50;6.30;;;7.60;99.90;;;;;;5047914;28;20525;-85
2022/05/03 00:24:29;;;;;;;11.68;6.47;;;7.60;99.90;;;;;;5034569;28;20134;-85
2022/05/03 00:26:55;;;;;;;11.15;6.00;;;7.60;99.90;;;;;;5032966;28;20051;-85
2022/05/03 00:29:22;;;;;;;11.40;6.47;;;7.60;99.90;;;;;;5010817;28;20170;-84
2022/05/03 00:31:49;;;;;;;12.05;6.45;;;7.60;99.90;;;;;;5050626;28;20517;-84
2022/05/03 00:34:16;;;;;;;12.73;6.80;;;7.60;99.90;;;;;;5042801;28;20493;-85
2022/05/03 00:36:42;;;;;;;13.65;7.43;;;7.60;99.90;;;;;;5029569;28;20032;-85
2022/05/03 00:39:08;;;;;;;13.55;7.07;;;7.50;99.90;;;;;;5032929;28;20040;-85
2022/05/03 00:41:44;;;;;;;12.07;6.80;;;7.50;99.90;;;;;;5036765;28;20081;-85
2022/05/03 00:47:14;;;;;;;13.57;7.65;;;7.50;99.90;;;;;;5062138;28;20048;-84
2022/05/03 00:50:08;;;;;;;12.50;7.00;;;7.50;99.90;;;;;;5062794;28;20036;-85
2022/05/03 00:52:54;;;;;;;11.38;6.75;;;7.50;99.90;;;;;;5046226;28;20048;-85
2022/05/03 00:55:38;;;;;;;13.15;7.75;;;7.50;99.90;;;;;;5038821;28;20436;-85
2022/05/03 00:58:17;;;;;;;13.15;7.53;;;7.40;99.90;;;;;;5042184;28;20040;-84
2022/05/03 01:01:12;;;;;;;15.20;8.27;;;7.40;99.90;;;;;;5052074;28;20532;-84
2022/05/03 01:03:54;;;;;;;12.48;7.45;;;7.40;99.90;;;;;;5037182;28;20048;-84
2022/05/03 01:06:33;;;;;;;13.17;7.93;;;7.40;99.90;;;;;;5044843;28;20581;-84
2022/05/03 01:09:06;;;;;;;13.30;8.35;;;7.50;99.90;;;;;;5034287;28;20033;-85
2022/05/03 01:11:32;;;;;;;;;;;7.50;99.90;;;;;;5040892;28;20060;-85
2022/05/03 01:14:10;;;;;;;12.23;7.38;;;7.40;99.90;;;;;;5068289;28;19920;-84
2022/05/03 01:16:58;;;;;;;14.20;7.72;;;7.30;99.90;;;;;;5050430;28;20048;-85
2022/05/03 01:19:33;;;;;;;13.38;7.38;;;7.40;99.90;;;;;;5037068;28;20040;-84
2022/05/03 01:22:37;;;;;;;12.07;7.63;;;7.40;99.90;;;;;;5052007;28;20451;-85
2022/05/03 01:25:03;;;;;;;13.00;7.55;;;7.40;99.90;;;;;;5052738;28;20041;-85
2022/05/03 01:27:43;;;;;;;12.60;7.40;;;7.40;99.90;;;;;;5051085;28;20044;-84
2022/05/03 01:30:11;;;;;;;11.77;7.50;;;7.40;99.90;;;;;;5050131;28;20051;-85
2022/05/03 01:32:41;;;;;;;13.68;7.28;;;7.40;99.90;;;;;;5020028;28;20071;-85
2022/05/03 01:35:07;;;;;;;13.48;7.43;;;7.40;99.90;;;;;;5051977;28;20128;-84
2022/05/03 01:38:01;;;;;;;13.05;7.60;;;7.40;99.90;;;;;;5035242;28;20481;-85
2022/05/03 01:40:43;;;;;;;12.38;7.18;;;7.40;99.90;;;;;;5051382;28;20047;-85
2022/05/03 01:43:23;;;;;;;13.68;8.13;;;7.30;99.90;;;;;;5036813;28;20036;-85
2022/05/03 01:46:03;;;;;;;12.52;7.40;;;7.30;99.90;;;;;;5060783;28;20116;-85
2022/05/03 01:52:21;;;;;;;12.20;7.07;;;7.30;99.90;;;;;;5065800;28;20048;-85
2022/05/03 01:55:09;;;;;;;13.77;7.97;;;7.20;99.90;;;;;;5068852;28;20051;-85
2022/05/03 01:57:53;;;;;;;14.00;7.65;;;7.20;99.90;;;;;;5068143;28;20055;-84
2022/05/03 02:00:22;;;;;;;12.45;7.70;;;7.20;99.90;;;;;;5058027;28;20055;-85
2022/05/03 02:02:57;;;;;;;13.63;8.07;;;7.20;99.90;;;;;;5063585;28;20385;-85
2022/05/03 02:05:35;;;;;;;13.23;7.53;;;7.30;99.90;;;;;;5058959;28;20101;-85
2022/05/03 02:08:01;;;;;;;11.82;7.82;;;7.20;99.90;;;;;;5052684;28;20072;-85
2022/05/03 02:10:49;;;;;;;14.40;8.27;;;7.40;99.90;;;;;;5035194;28;20646;-85
2022/05/03 02:14:43;;;;;;;14.68;7.82;;;7.20;99.90;;;;;;5062799;28;20193;-85
2022/05/03 02:16:28;;;;;;;12.80;7.97;;;7.10;99.90;;;;;;5066059;28;20082;-85
2022/05/03 02:19:12;;;;;;;13.73;8.27;;;8.20;99.90;;;;;;5052599;28;20044;-85
2022/05/03 02:22:07;;;;;;;13.93;8.18;;;7.10;99.90;;;;;;5056968;28;20460;-85
2022/05/03 02:24:56;;;;;;;13.48;8.80;;;7.10;99.90;;;;;;5024927;28;20114;-85
2022/05/03 02:27:25;;;;;;;13.77;8.85;;;7.60;99.90;;;;;;5062217;28;20036;-84
2022/05/03 02:29:51;;;;;;;14.23;8.63;;;7.10;99.90;;;;;;5047560;28;20094;-84
2022/05/03 02:32:36;;;;;;;14.40;8.63;;;7.10;99.90;;;;;;5055766;28;20037;-84
2022/05/03 02:35:06;;;;;;;13.68;8.15;;;7.30;99.90;;;;;;5058380;28;20040;-84
2022/05/03 02:37:38;;;;;;;13.02;8.45;;;7.10;99.90;;;;;;5063821;28;20036;-85
2022/05/03 02:40:09;;;;;;;13.68;8.77;;;7.10;99.90;;;;;;5055953;28;20067;-85
2022/05/03 02:42:36;;;;;;;13.50;8.32;;;7.10;99.90;;;;;;5057484;28;20477;-84
2022/05/03 02:45:04;;;;;;;14.98;9.38;;;7.10;99.90;;;;;;5079903;28;20048;-84
2022/05/03 02:47:45;;;;;;;14.82;9.55;;;7.10;99.90;;;;;;5070270;28;20421;-86
2022/05/03 02:50:17;;;;;;;14.10;8.80;;;7.10;99.90;;;;;;5077436;28;20049;-85
2022/05/03 02:52:48;;;;;;;14.98;9.20;;;7.20;99.90;;;;;;5061668;28;20044;-85
2022/05/03 02:55:21;;;;;;;15.65;10.20;;;7.20;99.90;;;;;;5062298;28;20056;-84
2022/05/03 02:58:02;;;;;;;16.30;10.07;;;;;;;;;;5053954;28;20048;-84
2022/05/03 03:03:59;;;;;;;14.93;10.15;;;7.30;99.90;;;;;;5057478;28;20047;-84
2022/05/03 03:06:30;;;;;;;15.32;9.95;;;7.30;99.90;;;;;;5054616;28;20056;-85
2022/05/03 03:08:59;;;;;;;15.68;9.48;;;7.40;99.90;;;;;;5056162;28;20051;-84
2022/05/03 03:12:03;;;;;;;16.23;10.32;;;7.40;99.90;;;;;;5070781;28;20063;-84
2022/05/03 03:14:43;;;;;;;16.25;10.57;;;7.50;99.90;;;;;;5064517;28;20119;-85
2022/05/03 03:17:10;;;;;;;13.82;9.20;;;7.50;99.90;;;;;;5061858;28;20090;-84
2022/05/03 03:19:56;;;;;;;15.38;10.55;;;7.50;99.90;;;;;;5055130;28;20064;-85
2022/05/03 03:22:23;;;;;;;14.80;10.38;;;7.50;99.90;;;;;;5046296;28;20119;-85
2022/05/03 03:24:51;;;;;;;15.90;10.43;;;7.50;99.90;;;;;;5056938;28;20036;-85
2022/05/03 03:27:21;;;;;;;16.98;10.75;;;8.00;99.90;;;;;;5059129;28;20047;-84
2022/05/03 03:29:51;;;;;;;15.93;10.50;;;6.70;99.90;;;;;;5056910;28;20099;-84
2022/05/03 03:32:18;;;;;;;16.58;11.13;;;7.60;99.90;;;;;;5053663;28;20283;-84
2022/05/03 03:34:47;;;;;;;17.83;11.80;;;7.60;99.90;;;;;;5072358;28;20051;-85
2022/05/03 03:37:16;;;;;;;17.42;12.48;;;7.60;99.90;;;;;;5060910;28;20040;-85
2022/05/03 03:39:41;;;;;;;17.90;11.50;;;7.90;99.90;;;;;;5047287;28;20158;-84
2022/05/03 03:42:07;;;;;;;19.02;13.52;;;7.70;99.90;;;;;;5035075;28;20048;-85
2022/05/03 03:44:34;;;;;;;17.02;11.98;;;7.70;99.90;;;;;;5051495;28;20040;-85
2022/05/03 03:47:01;;;;;;;18.80;12.40;;;7.70;99.90;;;;;;5052861;28;20076;-85
2022/05/03 03:49:29;;;;;;;19.33;12.43;;;7.60;99.90;;;;;;5036155;28;20048;-85
2022/05/03 03:51:55;;;;;;;18.23;12.55;;;7.70;99.90;;;;;;5047848;28;20523;-85
2022/05/03 03:54:23;;;;;;;18.77;12.85;;;7.70;99.90;;;;;;5051576;28;20405;-85
2022/05/03 03:56:50;;;;;;;18.73;12.80;;;7.80;99.90;;;;;;5038126;28;20040;-85
2022/05/03 03:59:17;;;;;;;19.10;13.43;;;7.80;99.90;;;;;;5069001;28;20043;-84
2022/05/03 04:01:43;;;;;;;20.00;13.52;;;7.80;99.90;;;;;;5033965;28;20074;-84
2022/05/03 04:04:11;;;;;;;18.58;13.02;;;7.80;99.90;;;;;;5046976;28;20045;-84
2022/05/03 04:06:37;;;;;;;21.10;14.15;;;7.90;99.90;;;;;;5023833;28;20033;-85
2022/05/03 04:09:05;;;;;;;19.90;14.02;;;7.90;99.90;;;;;;5050779;28;20068;-85
2022/05/03 04:11:44;;;;;;;21.50;13.90;;;8.50;99.90;;;;;;5042605;28;20049;-85
2022/05/03 04:14:11;;;;;;;19.95;13.82;;;8.00;99.90;;;;;;5042102;28;20037;-86
2022/05/03 04:16:37;;;;;;;20.40;13.27;;;8.00;99.90;;;;;;5033793;28;20501;-85
2022/05/03 04:19:02;;;;;;;20.00;13.93;;;8.00;99.90;;;;;;5050048;28;20044;-85
2022/05/03 04:21:28;;;;;;;19.67;14.40;;;8.00;99.90;;;;;;5035061;28;20512;-84
2022/05/03 04:23:54;;;;;;;20.25;14.05;;;8.10;99.90;;;;;;5035342;28;20036;-85
2022/05/03 04:26:19;;;;;;;21.05;14.63;;;8.80;99.90;;;;;;5039168;28;20041;-85
2022/05/03 04:28:45;;;;;;;20.65;14.32;;;8.10;99.90;;;;;;5040274;28;20037;-85
2022/05/03 04:31:11;;;;;;;20.88;14.63;;;8.20;99.90;;;;;;5031417;28;20095;-85
2022/05/03 04:33:36;;;;;;;22.30;14.95;;;8.20;99.90;;;;;;5044707;28;20784;-84
2022/05/03 04:36:03;;;;;;;21.85;14.60;;;8.50;99.90;;;;;;5039883;28;20037;-85
2022/05/03 04:38:28;;;;;;;21.17;14.70;;;8.30;99.90;;;;;;5052691;28;20128;-84
2022/05/03 04:41:02;;;;;;;21.85;14.50;;;8.60;99.90;;;;;;5033399;28;20111;-85
2022/05/03 04:43:27;;;;;;;;;;;8.30;99.90;;;;;;5052173;28;20086;-85
2022/05/03 04:45:53;;;;;;;23.67;15.32;;;8.30;99.90;;;;;;5048665;28;20343;-84
2022/05/03 04:48:19;;;;;;;21.77;15.02;;;8.30;99.90;;;;;;5036171;28;20040;-85
2022/05/03 04:50:46;;;;;;;21.50;14.35;;;8.40;99.90;;;;;;5036007;28;20033;-85
2022/05/03 04:53:12;;;;;;;24.17;16.30;;;8.60;99.90;;;;;;5053665;28;20055;-85
2022/05/03 04:55:40;;;;;;;21.42;15.38;;;8.40;99.90;;;;;;5035728;28;20037;-84
2022/05/03 04:58:07;;;;;;;23.23;15.02;;;8.40;99.90;;;;;;5062273;28;20519;-85
2022/05/03 05:00:33;;;;;;;23.30;15.93;;;8.50;99.90;;;;;;5042945;28;20116;-84
2022/05/03 05:02:59;;;;;;;21.90;14.80;;;8.50;99.90;;;;;;5027213;28;20593;-84
2022/05/03 05:05:24;;;;;;;24.38;17.40;;;8.50;99.90;;;;;;5058394;28;20040;-85
2022/05/03 05:07:50;;;;;;;23.20;16.30;;;8.50;99.90;;;;;;5035013;28;20036;-85
2022/05/03 05:10:26;;;;;;;22.40;16.45;;;8.50;99.90;;;;;;5046716;28;20056;-85
2022/05/03 05:12:55;;;;;;;24.80;18.10;;;8.50;99.90;;;;;;5052195;28;20049;-85
2022/05/03 05:15:25;;;;;;;25.95;17.20;;;8.60;99.90;;;;;;5033424;28;20347;-85
2022/05/03 05:17:51;;;;;;;23.58;16.67;;;8.60;99.90;;;;;;5049590;28;20507;-85
2022/05/03 05:20:18;;;;;;;23.23;16.58;;;8.60;99.90;;;;;;5041504;28;20113;-84
2022/05/03 05:22:44;;;;;;;24.25;17.42;;;8.60;99.90;;;;;;5025260;28;20033;-84
2022/05/03 05:25:10;;;;;;;23.88;16.17;;;8.70;99.90;;;;;;5048701;28;20118;-84
2022/05/03 05:27:36;;;;;;;25.25;17.13;;;8.70;99.90;;;;;;5015164;28;20048;-84
2022/05/03 05:30:03;;;;;;;24.42;16.10;;;10.30;99.90;;;;;;5034747;28;20242;-84
2022/05/03 05:32:29;;;;;;;25.30;18.60;;;8.80;99.90;;;;;;5050513;28;20037;-84
2022/05/03 05:34:55;;;;;;;26.08;18.80;;;8.80;99.90;;;;;;5062130;28;20037;-84
2022/05/03 05:37:21;;;;;;;25.83;17.88;;;9.50;99.90;;;;;;5043068;28;20036;-85
2022/05/03 05:39:46;;;;;;;25.52;18.27;;;8.90;99.90;;;;;;5032864;28;20040;-84
2022/05/03 05:42:12;;;;;;;24.23;17.45;;;8.90;99.90;;;;;;5056420;28;20059;-84
2022/05/03 05:44:38;;;;;;;25.27;17.88;;;9.30;99.90;;;;;;5035538;28;20040;-84
2022/05/03 05:47:07;;;;;;;26.63;17.58;;;8.90;99.90;;;;;;5036496;28;20041;-84
2022/05/03 05:49:32;;;;;;;26.60;17.45;;;8.90;99.90;;;;;;5052278;28;20405;-84
2022/05/03 05:54:43;;;;;;;25.23;18.23;;;8.90;99.90;;;;;;5054425;28;20574;-83
2022/05/03 05:57:08;;;;;;;31.20;20.70;;;9.00;99.90;;;;;;5069090;28;20455;-83
2022/05/03 05:59:34;;;;;;;28.70;20.10;;;9.00;99.90;;;;;;5068785;28;20140;-83
2022/05/03 06:02:00;;;;;;;29.77;19.58;;;9.00;99.90;;;;;;5049239;28;20417;-83
2022/05/03 06:04:28;;;;;;;30.27;20.40;;;9.00;99.90;;;;;;5033590;28;20115;-83
2022/05/03 06:06:57;;;;;;;32.08;22.02;;;9.00;99.90;;;;;;5049266;28;20534;-83
2022/05/03 06:09:23;;;;;;;29.80;21.00;;;9.00;99.90;;;;;;5050480;28;20040;-83
2022/05/03 06:11:49;;;;;;;30.63;20.77;;;9.10;99.90;;;;;;5051529;28;20049;-83
2022/05/03 06:14:15;;;;;;;33.15;22.45;;;9.10;99.90;;;;;;5045486;28;20097;-83
2022/05/03 06:17:07;;;;;;;34.28;23.00;;;9.10;99.90;;;;;;5025678;28;20119;-83
2022/05/03 06:19:32;;;;;;;26.27;17.25;;;9.20;99.90;;;;;;5047615;28;20503;-83
2022/05/03 06:21:58;;;;;;;30.65;16.73;;;9.20;99.90;;;;;;5044517;28;20128;-84
2022/05/03 06:24:23;;;;;;;28.67;15.23;;;9.20;99.90;;;;;;5031652;28;20295;-84
2022/05/03 06:26:49;;;;;;;27.50;13.10;;;9.30;99.90;;;;;;5043797;28;20044;-84
2022/05/03 06:29:16;;;;;;;23.25;11.77;;;9.30;99.90;;;;;;5048070;28;20513;-84
2022/05/03 06:31:42;;;;;;;21.65;9.93;;;9.30;99.90;;;;;;5026666;28;20489;-84
2022/05/03 06:34:08;;;;;;;24.38;8.63;;;9.40;99.90;;;;;;5035015;28;20037;-84
2022/05/03 06:36:35;;;;;;;16.83;6.50;;;9.40;99.90;;;;;;5032248;28;20037;-84
2022/05/03 06:39:04;;;;;;;16.75;6.57;;;9.40;99.90;;;;;;5051561;28;20485;-83
2022/05/03 06:41:31;;;;;;;18.55;6.20;;;9.40;99.90;;;;;;5068274;28;20048;-84
2022/05/03 06:43:58;;;;;;;20.40;5.85;;;9.30;99.90;;;;;;5047951;28;20055;-84
2022/05/03 06:46:24;;;;;;;16.38;5.85;;;9.30;99.90;;;;;;5035123;28;20051;-85
2022/05/03 06:48:50;;;;;;;18.23;5.72;;;9.30;99.90;;;;;;5048030;28;20040;-84
2022/05/03 06:51:16;;;;;;;17.50;5.15;;;9.30;99.90;;;;;;5043103;28;20037;-83
2022/05/03 06:53:41;;;;;;;16.35;4.93;;;9.30;99.90;;;;;;5033328;28;20283;-84
2022/05/03 06:56:07;;;;;;;15.13;5.15;;;9.30;99.90;;;;;;5023106;28;20408;-83
2022/05/03 06:58:33;;;;;;;18.42;5.65;;;9.30;99.90;;;;;;5027983;28;20146;-83
2022/05/03 07:01:13;;;;;;;17.70;5.00;;;9.30;99.90;;;;;;5068414;28;20033;-85
2022/05/03 07:03:40;;;;;;;15.95;5.60;;;9.40;99.90;;;;;;5052546;28;20037;-83
2022/05/03 07:06:07;;;;;;;16.60;4.78;;;9.30;99.90;;;;;;5039778;28;20454;-84
2022/05/03 07:08:33;;;;;;;15.35;5.05;;;9.30;99.90;;;;;;5051461;28;20040;-83
2022/05/03 07:10:59;;;;;;;16.27;5.50;;;9.30;99.90;;;;;;5055473;28;20529;-83
2022/05/03 07:13:25;;;;;;;17.58;5.60;;;9.30;99.90;;;;;;5067983;28;20139;-83
2022/05/03 07:15:56;;;;;;;18.05;6.38;;;10.00;99.90;;;;;;5038603;28;20079;-84
2022/05/03 07:23:52;;;;;;;18.30;5.75;;;9.30;99.90;;;;;;5068022;28;20056;-84
2022/05/03 07:26:19;;;;;;;20.60;6.20;;;9.40;99.90;;;;;;5043552;28;20037;-84
2022/05/03 07:28:47;;;;;;;19.40;6.22;;;9.40;99.90;;;;;;5065607;28;20199;-84
2022/05/03 07:31:13;;;;;;;20.48;6.28;;;9.40;99.90;;;;;;5071632;28;20044;-84
2022/05/03 07:33:39;;;;;;;27.20;6.60;;;9.50;99.90;;;;;;5022010;28;20405;-83
2022/05/03 07:36:05;;;;;;;21.58;6.25;;;9.50;99.90;;;;;;5028400;28;20036;-84
2022/05/03 07:38:31;;;;;;;21.58;6.38;;;9.50;99.90;;;;;;5038000;28;20085;-84
2022/05/03 07:40:57;;;;;;;17.77;5.93;;;9.50;99.90;;;;;;5014748;28;20398;-83
2022/05/03 07:43:23;;;;;;;18.13;5.45;;;9.60;99.90;;;;;;5038585;28;20064;-84
2022/05/03 07:45:49;;;;;;;22.85;5.38;;;9.60;99.90;;;;;;5054579;28;20456;-84
2022/05/03 07:48:15;;;;;;;20.63;5.28;;;9.60;99.90;;;;;;5054423;28;20041;-84
2022/05/03 07:50:41;;;;;;;21.27;5.40;;;9.70;99.90;;;;;;5058775;28;20040;-84
2022/05/03 07:53:06;;;;;;;19.73;5.22;;;10.50;99.90;;;;;;5037850;28;20044;-84
2022/05/03 07:55:32;;;;;;;19.20;5.22;;;9.80;99.90;;;;;;5034272;28;20056;-84
2022/05/03 07:57:58;;;;;;;26.17;5.38;;;9.90;99.90;;;;;;5052497;28;20036;-84
2022/05/03 08:00:24;;;;;;;19.08;5.15;;;10.00;99.90;;;;;;5054565;28;20036;-84
2022/05/03 08:02:49;;;;;;;20.65;4.85;;;10.10;99.90;;;;;;5071625;28;20036;-83
2022/05/03 08:05:16;;;;;;;22.52;4.97;;;10.10;99.90;;;;;;5054357;28;20462;-83
2022/05/03 08:07:42;;;;;;;17.23;5.10;;;10.10;99.90;;;;;;5045845;28;20468;-84
2022/05/03 08:10:08;;;;;;;15.43;4.35;;;10.10;99.90;;;;;;5053992;28;20096;-83
2022/05/03 08:12:35;;;;;;;17.30;4.63;;;10.00;99.90;;;;;;5044707;28;20040;-84
2022/05/03 08:15:02;;;;;;;17.77;4.43;;;10.00;99.90;;;;;;5037315;28;20072;-85
2022/05/03 08:17:28;;;;;;;17.08;4.97;;;10.10;99.90;;;;;;5070944;28;20072;-84
2022/05/03 08:19:54;;;;;;;18.48;4.60;;;10.40;99.90;;;;;;5054091;28;20036;-85
2022/05/03 08:22:20;;;;;;;22.88;5.10;;;9.00;99.90;;;;;;5054373;28;20123;-85
2022/05/03 08:24:46;;;;;;;16.63;4.50;;;10.10;99.90;;;;;;5066152;28;20079;-85
2022/05/03 08:27:12;;;;;;;15.23;4.88;;;10.10;99.90;;;;;;5034925;28;20494;-85
2022/05/03 08:29:38;;;;;;;17.92;4.13;;;10.10;99.90;;;;;;5048049;28;20044;-84
2022/05/03 08:32:05;;;;;;;17.52;4.43;;;10.10;99.90;;;;;;5020967;28;20037;-85
2022/05/03 08:34:31;;;;;;;20.33;4.20;;;10.10;99.90;;;;;;5037159;28;20052;-84
2022/05/03 08:42:28;;;;;;;12.82;3.50;;;10.10;99.90;;;;;;5069663;28;20146;-85
2022/05/03 08:44:55;;;;;;;20.33;4.18;;;10.10;99.90;;;;;;5054007;28;20441;-84
2022/05/03 08:47:24;;;;;;;18.50;3.35;;;10.10;99.90;;;;;;5053806;28;20067;-84
2022/05/03 08:50:08;;;;;;;15.38;4.00;;;10.10;99.90;;;;;;5066609;28;20044;-84
2022/05/03 08:52:49;;;;;;;17.75;4.20;;;10.20;99.90;;;;;;5036745;28;20044;-85
2022/05/03 08:55:15;;;;;;;18.05;3.45;;;10.20;99.90;;;;;;5056409;28;20052;-85
2022/05/03 08:57:42;;;;;;;15.27;3.50;;;10.20;99.90;;;;;;5070199;28;20112;-85
2022/05/03 09:00:09;;;;;;;16.58;3.50;;;10.30;99.90;;;;;;5053046;28;20090;-85
2022/05/03 09:02:46;;;;;;;15.82;3.55;;;10.30;99.90;;;;;;5070026;28;20119;-85
2022/05/03 09:05:12;;;;;;;16.77;3.65;;;10.30;99.90;;;;;;5069742;28;20041;-84
2022/05/03 09:07:38;;;;;;;14.15;3.78;;;10.40;99.90;;;;;;5069940;28;20040;-85
2022/05/03 09:10:29;;;;;;;14.00;3.78;;;10.60;99.90;;;;;;5069413;28;20048;-84
2022/05/03 09:13:22;;;;;;;13.88;3.22;;;10.60;99.90;;;;;;5053216;28;20532;-85
2022/05/03 09:16:15;;;;;;;14.70;3.53;;;10.80;99.90;;;;;;5045854;28;20048;-84
2022/05/03 09:18:43;;;;;;;14.98;3.33;;;10.80;99.90;;;;;;5063882;28;20057;-84
2022/05/03 09:24:11;;;;;;;17.40;3.40;;;10.90;99.90;;;;;;5069817;28;20040;-85
2022/05/03 09:26:37;;;;;;;17.30;3.63;;;11.00;99.90;;;;;;5069611;28;20043;-84
2022/05/03 09:29:08;;;;;;;16.08;3.83;;;11.10;99.90;;;;;;5036079;28;20097;-86
2022/05/03 09:31:41;;;;;;;14.10;3.55;;;11.10;99.90;;;;;;5053059;28;20077;-84
2022/05/03 09:34:19;;;;;;;15.30;3.40;;;11.10;99.90;;;;;;5052398;28;20047;-85
2022/05/03 09:36:58;;;;;;;18.58;3.78;;;11.20;99.90;;;;;;5057647;28;20048;-85
2022/05/03 09:39:29;;;;;;;10.43;3.10;;;11.20;99.90;;;;;;5037153;28;20044;-84
2022/05/03 09:42:14;;;;;;;11.75;2.90;;;11.20;99.90;;;;;;5042639;28;20036;-84
2022/05/03 09:44:55;;;;;;;16.02;3.38;;;11.20;99.90;;;;;;5068753;28;20051;-84
2022/05/03 09:47:23;;;;;;;15.25;3.33;;;11.40;99.90;;;;;;5069604;28;20457;-84
2022/05/03 09:49:49;;;;;;;15.30;2.92;;;11.50;99.90;;;;;;5052267;28;20041;-84
2022/05/03 09:52:29;;;;;;;16.17;3.20;;;11.80;99.90;;;;;;5049024;28;20047;-84
2022/05/03 09:55:03;;;;;;;10.63;3.08;;;11.70;99.90;;;;;;5040562;28;20036;-85
2022/05/03 09:57:31;;;;;;;12.77;2.97;;;11.80;99.90;;;;;;5052409;28;20437;-85
2022/05/03 09:59:58;;;;;;;14.40;3.40;;;11.80;99.90;;;;;;5057410;28;20043;-84
2022/05/03 10:02:26;;;;;;;14.13;3.20;;;12.00;99.90;;;;;;5052145;28;20041;-84
2022/05/03 10:04:56;;;;;;;13.32;3.03;;;12.00;99.90;;;;;;5060632;28;20049;-84
2022/05/03 10:07:22;;;;;;;13.30;2.97;;;12.00;99.90;;;;;;5032348;28;20124;-85
2022/05/03 10:09:49;;;;;;;12.23;2.90;;;12.10;99.90;;;;;;5028047;28;20047;-84
2022/05/03 10:12:16;;;;;;;9.93;2.85;;;12.10;99.90;;;;;;5051181;28;20291;-85
2022/05/03 10:14:43;;;;;;;10.63;2.92;;;12.20;99.90;;;;;;5048698;28;20596;-84
2022/05/03 10:20:36;;;;;;;9.93;2.65;;;12.50;99.90;;;;;;5058040;28;20112;-85
2022/05/03 10:23:01;;;;;;;11.52;2.75;;;12.60;99.90;;;;;;5056509;28;20407;-84
2022/05/03 10:25:42;;;;;;;13.63;2.92;;;12.60;99.90;;;;;;5045723;28;20036;-84
2022/05/03 10:28:08;;;;;;;9.52;2.58;;;12.60;99.90;;;;;;5068708;28;20120;-84
2022/05/03 10:30:34;;;;;;;10.85;2.85;;;12.50;99.90;;;;;;5050793;28;20140;-84
2022/05/03 10:33:19;;;;;;;10.48;2.42;;;12.70;99.90;;;;;;5015769;28;20049;-84
2022/05/03 10:35:45;;;;;;;12.25;2.80;;;12.70;99.90;;;;;;5045780;28;20147;-84
2022/05/03 10:38:12;;;;;;;13.13;3.13;;;12.70;99.90;;;;;;5042427;28;20114;-83
2022/05/03 10:40:43;;;;;;;11.48;2.63;;;13.00;99.90;;;;;;5048538;28;20116;-84
2022/05/03 10:43:27;;;;;;;11.10;2.67;;;13.20;99.90;;;;;;5048519;28;20045;-84
2022/05/03 10:45:58;;;;;;;10.95;2.92;;;13.20;99.90;;;;;;5048489;28;20037;-84
2022/05/03 10:48:31;;;;;;;9.82;2.45;;;13.10;99.90;;;;;;5048223;28;20132;-84
2022/05/03 10:51:02;;;;;;;9.75;2.53;;;13.10;99.90;;;;;;5050828;28;20033;-84
2022/05/03 10:53:36;;;;;;;11.52;2.70;;;12.90;99.90;;;;;;5061600;28;20048;-84
2022/05/03 10:56:01;;;;;;;14.00;2.42;;;12.90;99.90;;;;;;5051598;28;20408;-83
2022/05/03 10:58:29;;;;;;;12.07;2.58;;;13.00;99.90;;;;;;5051807;28;20028;-83
2022/05/03 11:01:04;;;;;;;9.80;2.50;;;13.00;99.90;;;;;;5055076;28;20083;-84
2022/05/03 11:03:31;;;;;;;10.52;2.63;;;13.20;99.90;;;;;;5051277;28;20037;-84
2022/05/03 11:06:21;;;;;;;10.95;2.63;;;13.20;99.90;;;;;;5072139;28;20041;-84
2022/05/03 11:09:05;;;;;;;12.00;2.58;;;13.20;99.90;;;;;;5055420;28;20127;-84
2022/05/03 11:11:40;;;;;;;10.02;2.30;;;13.30;99.90;;;;;;5071992;28;20110;-84
2022/05/03 11:14:28;;;;;;;10.30;2.50;;;13.30;99.90;;;;;;5068997;28;20127;-84
2022/05/03 11:17:04;;;;;;;9.80;2.38;;;12.20;99.90;;;;;;5071687;28;20091;-85
2022/05/03 11:19:50;;;;;;;8.45;2.13;;;13.30;99.90;;;;;;5061722;28;20041;-85
2022/05/03 11:22:19;;;;;;;10.52;2.47;;;13.20;99.90;;;;;;5039244;28;20085;-84
2022/05/03 11:24:53;;;;;;;10.65;2.28;;;13.30;99.90;;;;;;5071882;28;20123;-84
2022/05/03 11:27:20;;;;;;;7.95;1.90;;;13.20;99.90;;;;;;5071409;28;20492;-84
2022/05/03 11:29:54;;;;;;;11.10;2.50;;;13.20;99.90;;;;;;5055069;28;20521;-84
2022/05/03 11:32:41;;;;;;;11.00;2.35;;;13.20;99.90;;;;;;5055010;28;20456;-84
2022/05/03 11:35:11;;;;;;;10.43;2.25;;;13.20;99.90;;;;;;5071682;28;20047;-85
2022/05/03 11:37:48;;;;;;;12.20;2.35;;;13.20;99.90;;;;;;5061080;28;20044;-86
2022/05/03 11:40:15;;;;;;;13.65;2.80;;;13.10;99.90;;;;;;5054999;28;20487;-84
2022/05/03 11:42:44;;;;;;;11.32;2.45;;;13.30;99.90;;;;;;5045598;28;20040;-85
2022/05/03 11:45:11;;;;;;;14.05;2.60;;;13.30;99.90;;;;;;5055128;28;20400;-85
2022/05/03 11:47:48;;;;;;;9.95;2.70;;;13.30;99.90;;;;;;5035500;28;20394;-85
2022/05/03 11:56:00;;;;;;;8.02;2.20;;;12.90;99.90;;;;;;5061676;28;20067;-83
2022/05/03 11:58:28;;;;;;;8.93;2.20;;;12.90;99.90;;;;;;5054370;28;20047;-84
2022/05/03 12:00:53;;;;;;;12.73;2.28;;;13.30;99.90;;;;;;5061636;28;20032;-85
2022/05/03 12:03:19;;;;;;;11.38;2.50;;;12.90;99.90;;;;;;5037906;28;20473;-84
2022/05/03 12:06:03;;;;;;;9.32;2.25;;;12.90;99.90;;;;;;5034691;28;20036;-84
2022/05/03 12:08:29;;;;;;;11.73;2.70;;;12.80;99.90;;;;;;5069204;28;20501;-84
2022/05/03 12:10:56;;;;;;;10.25;2.85;;;12.90;99.90;;;;;;5061754;28;20052;-86
2022/05/03 12:13:22;;;;;;;13.75;2.67;;;12.90;99.90;;;;;;5037786;28;20408;-85
2022/05/03 12:15:49;;;;;;;9.30;2.40;;;13.00;99.90;;;;;;5059026;28;20049;-85
2022/05/03 12:18:19;;;;;;;7.47;2.20;;;13.00;99.90;;;;;;5054270;28;20043;-84
2022/05/03 12:20:51;;;;;;;11.35;2.88;;;13.00;99.90;;;;;;5054159;28;20040;-84
2022/05/03 12:23:23;;;;;;;10.43;2.40;;;13.00;99.90;;;;;;5068215;28;20179;-84
2022/05/03 12:25:54;;;;;;;9.73;2.58;;;12.90;99.90;;;;;;5070799;28;20048;-84
2022/05/03 12:28:20;;;;;;;9.30;2.33;;;13.10;99.90;;;;;;5047654;28;20091;-84
2022/05/03 12:30:56;;;;;;;10.18;2.63;;;13.20;99.90;;;;;;5053868;28;20485;-84
2022/05/03 12:33:26;;;;;;;9.90;2.38;;;13.40;99.90;;;;;;5054042;28;20040;-84
2022/05/03 12:35:51;;;;;;;10.60;2.42;;;13.60;99.90;;;;;;5062904;28;20059;-85
2022/05/03 12:38:18;;;;;;;11.82;2.47;;;13.90;99.90;;;;;;5054223;28;20497;-85
2022/05/03 12:40:47;;;;;;;11.25;2.63;;;13.90;99.90;;;;;;5037281;28;20551;-85
2022/05/03 12:43:21;;;;;;;9.52;2.35;;;13.90;99.90;;;;;;5070560;28;20072;-85
2022/05/03 12:45:56;;;;;;;13.95;2.47;;;14.20;99.90;;;;;;5053874;28;20531;-86
2022/05/03 12:48:22;;;;;;;12.70;2.42;;;14.50;99.90;;;;;;5056979;28;20050;-85
2022/05/03 12:50:49;;;;;;;14.75;2.58;;;14.50;99.90;;;;;;5036947;28;20082;-85
2022/05/03 12:53:15;;;;;;;12.00;2.50;;;14.60;99.90;;;;;;5053562;28;20040;-84
2022/05/03 12:55:41;;;;;;;10.25;2.72;;;14.70;99.90;;;;;;5070126;28;20161;-85
2022/05/03 12:58:24;;;;;;;13.57;2.78;;;14.50;99.90;;;;;;5053898;28;20036;-84
2022/05/03 13:00:54;;;;;;;;;;;14.50;99.90;;;;;;5023602;28;20084;-85
2022/05/03 13:03:21;;;;;;;11.77;2.53;;;14.40;99.90;;;;;;5050340;28;20015;-85
2022/05/03 13:05:48;;;;;;;11.18;2.50;;;14.50;99.90;;;;;;5053428;28;20052;-85
2022/05/03 13:08:15;;;;;;;10.70;2.67;;;14.70;99.90;;;;;;5040026;28;20056;-84
2022/05/03 13:10:41;;;;;;;10.63;2.25;;;14.70;99.90;;;;;;5045957;28;20056;-85
2022/05/03 13:13:07;;;;;;;10.45;2.58;;;14.40;99.90;;;;;;5052989;28;20052;-85
2022/05/03 13:15:33;;;;;;;14.38;2.90;;;14.20;99.90;;;;;;5053282;28;20539;-85
2022/05/03 13:17:59;;;;;;;15.15;2.63;;;13.80;99.90;;;;;;5069768;28;20036;-84
2022/05/03 13:20:26;;;;;;;13.75;2.72;;;14.00;99.90;;;;;;5053155;28;20051;-84
2022/05/03 13:22:53;;;;;;;10.77;2.40;;;14.00;99.90;;;;;;5033332;28;20037;-85
2022/05/03 13:25:19;;;;;;;11.20;2.75;;;14.10;99.90;;;;;;5060320;28;20067;-85
2022/05/03 13:27:45;;;;;;;12.23;2.47;;;14.20;99.90;;;;;;5052686;28;20062;-84
2022/05/03 13:30:11;;;;;;;9.25;2.20;;;14.30;99.90;;;;;;5066329;28;20140;-84
2022/05/03 13:32:37;;;;;;;11.88;2.60;;;14.70;99.90;;;;;;5082678;28;20048;-84
2022/05/03 13:35:03;;;;;;;12.55;2.60;;;14.90;99.90;;;;;;5024476;28;20037;-84